createdAt,value
2022-12-31T00:01:23.930Z,48.00
2022-12-31T00:03:50.597Z,44.25
2022-12-31T00:06:24.509Z,45.00
2022-12-31T00:08:52.078Z,43.60
2022-12-31T00:11:19.403Z,48.00
2022-12-31T00:13:49.162Z,50.25
2022-12-31T00:16:17.486Z,49.00
2022-12-31T00:18:47.563Z,47.00
2022-12-31T00:21:14.379Z,48.25
2022-12-31T00:23:41.128Z,45.40
2022-12-31T00:26:09.666Z,45.00
2022-12-31T00:28:36.825Z,48.20
2022-12-31T00:31:11.333Z,48.20
2022-12-31T00:33:38.401Z,51.40
2022-12-31T00:36:06.157Z,49.00
2022-12-31T00:38:32.664Z,52.80
2022-12-31T00:40:59.163Z,55.00
2022-12-31T00:43:25.736Z,50.00
2022-12-31T00:45:52.287Z,51.50
2022-12-31T00:48:18.812Z,51.50
2022-12-31T00:50:45.772Z,49.60
2022-12-31T00:53:12.343Z,51.00
2022-12-31T00:55:38.822Z,53.50
2022-12-31T00:58:05.299Z,51.75
2022-12-31T01:00:31.892Z,51.75
2022-12-31T01:02:58.455Z,53.60
2022-12-31T01:05:25.129Z,51.25
2022-12-31T01:07:51.589Z,55.50
2022-12-31T01:10:38.063Z,52.60
2022-12-31T01:13:04.571Z,52.00
2022-12-31T01:15:35.630Z,49.00
2022-12-31T01:18:02.834Z,49.50
2022-12-31T01:20:29.699Z,51.00
2022-12-31T01:22:56.156Z,46.00
2022-12-31T01:25:22.672Z,55.00
2022-12-31T01:27:49.143Z,53.20
2022-12-31T01:30:15.614Z,49.00
2022-12-31T01:32:42.351Z,53.00
2022-12-31T01:35:09.085Z,48.67
2022-12-31T01:37:35.697Z,49.75
2022-12-31T01:40:02.114Z,49.00
2022-12-31T01:42:28.583Z,50.00
2022-12-31T01:44:55.745Z,45.00
2022-12-31T01:47:30.824Z,50.00
2022-12-31T01:50:00.762Z,49.00
2022-12-31T01:52:30.293Z,52.40
2022-12-31T01:55:00.260Z,48.75
2022-12-31T01:57:27.545Z,50.00
2022-12-31T01:59:55.539Z,53.00
2022-12-31T02:02:22.918Z,51.00
2022-12-31T02:04:51.182Z,51.25
2022-12-31T02:07:17.699Z,52.50
2022-12-31T02:09:44.594Z,46.80
2022-12-31T02:12:11.633Z,50.00
2022-12-31T02:14:40.461Z,50.60
2022-12-31T02:17:12.962Z,49.20
2022-12-31T02:19:58.057Z,49.00
2022-12-31T02:22:43.335Z,48.75
2022-12-31T02:25:36.121Z,52.60
2022-12-31T02:28:11.753Z,55.00
2022-12-31T02:30:39.490Z,55.40
2022-12-31T02:33:24.276Z,57.20
2022-12-31T02:35:53.988Z,57.00
2022-12-31T02:38:31.200Z,54.00
2022-12-31T02:40:57.732Z,50.80
2022-12-31T02:43:24.797Z,49.75
2022-12-31T02:45:58.089Z,51.25
2022-12-31T02:48:24.591Z,52.50
2022-12-31T02:50:57.125Z,54.00
2022-12-31T02:53:23.520Z,52.50
2022-12-31T02:55:53.219Z,52.60
2022-12-31T02:58:48.372Z,51.00
2022-12-31T03:01:36.995Z,54.75
2022-12-31T03:04:23.011Z,51.80
2022-12-31T03:06:49.796Z,51.20
2022-12-31T03:09:16.357Z,47.33
2022-12-31T03:12:01.570Z,42.40
2022-12-31T03:14:28.040Z,48.50
2022-12-31T03:16:54.620Z,44.20
2022-12-31T03:19:39.860Z,49.25
2022-12-31T03:22:24.670Z,47.00
2022-12-31T03:25:09.824Z,47.60
2022-12-31T03:27:36.244Z,50.25
2022-12-31T03:30:02.947Z,42.25
2022-12-31T03:32:29.442Z,48.00
2022-12-31T03:34:56.066Z,45.67
2022-12-31T03:37:22.646Z,37.00
2022-12-31T03:39:49.109Z,40.00
2022-12-31T03:42:15.562Z,42.50
2022-12-31T03:44:42.045Z,43.25
2022-12-31T03:47:08.518Z,40.75
2022-12-31T03:49:35.031Z,37.50
2022-12-31T03:52:03.100Z,36.25
2022-12-31T03:54:29.573Z,30.50
2022-12-31T03:57:00.076Z,32.00
2022-12-31T03:59:26.932Z,31.00
2022-12-31T04:01:53.540Z,27.40
2022-12-31T04:04:20.226Z,32.00
2022-12-31T04:06:46.698Z,35.00
2022-12-31T04:09:13.152Z,32.25
2022-12-31T04:11:39.645Z,33.25
2022-12-31T04:14:06.128Z,24.00
2022-12-31T04:16:32.767Z,31.50
2022-12-31T04:18:59.322Z,29.00
2022-12-31T04:21:30.084Z,31.00
2022-12-31T04:23:59.641Z,25.00
2022-12-31T04:26:26.129Z,32.00
2022-12-31T04:28:52.650Z,26.80
2022-12-31T04:31:19.219Z,27.40
2022-12-31T04:33:45.700Z,27.00
2022-12-31T04:36:12.189Z,22.00
2022-12-31T04:38:38.705Z,27.00
2022-12-31T04:41:17.317Z,22.60
2022-12-31T04:43:45.132Z,26.50
2022-12-31T04:46:11.766Z,28.25
2022-12-31T04:48:38.295Z,24.50
2022-12-31T04:51:04.881Z,21.40
2022-12-31T04:53:32.648Z,23.40
2022-12-31T04:55:59.128Z,27.00
2022-12-31T04:58:25.583Z,22.00
2022-12-31T05:00:54.614Z,24.75
2022-12-31T05:03:22.178Z,19.40
2022-12-31T05:05:50.058Z,22.20
2022-12-31T05:08:17.000Z,23.00
2022-12-31T05:10:45.107Z,30.25
2022-12-31T05:13:11.946Z,24.00
2022-12-31T05:15:39.085Z,24.60
2022-12-31T05:18:06.053Z,19.40
2022-12-31T05:20:32.806Z,18.60
2022-12-31T05:22:59.448Z,17.00
2022-12-31T05:25:26.264Z,18.60
2022-12-31T05:27:53.504Z,17.00
2022-12-31T05:30:20.559Z,18.60
2022-12-31T05:32:47.044Z,20.00
2022-12-31T05:35:13.655Z,17.75
2022-12-31T05:37:40.176Z,19.25
2022-12-31T05:40:07.191Z,21.00
2022-12-31T05:42:33.645Z,17.40
2022-12-31T05:45:00.197Z,16.60
2022-12-31T05:47:26.771Z,14.00
2022-12-31T05:49:53.578Z,17.40
2022-12-31T05:52:20.590Z,16.60
2022-12-31T05:54:47.134Z,25.00
2022-12-31T05:57:13.771Z,22.75
2022-12-31T05:59:40.246Z,21.00
2022-12-31T06:02:06.823Z,26.00
2022-12-31T06:04:33.289Z,26.60
2022-12-31T06:06:59.711Z,30.60
2022-12-31T06:09:26.174Z,25.80
2022-12-31T06:11:52.670Z,24.20
2022-12-31T06:14:19.171Z,24.00
2022-12-31T06:16:45.727Z,22.00
2022-12-31T06:19:12.204Z,25.00
2022-12-31T06:21:38.686Z,27.75
2022-12-31T06:24:05.306Z,28.50
2022-12-31T06:26:31.778Z,25.75
2022-12-31T06:28:58.272Z,28.40
2022-12-31T06:31:24.829Z,23.60
2022-12-31T06:33:51.340Z,27.60
2022-12-31T06:36:17.827Z,26.25
2022-12-31T06:38:44.683Z,25.40
2022-12-31T06:41:12.716Z,25.60
2022-12-31T06:43:39.797Z,29.00
2022-12-31T06:46:07.300Z,23.40
2022-12-31T06:48:34.034Z,24.40
2022-12-31T06:51:13.429Z,26.40
2022-12-31T06:53:43.578Z,29.50
2022-12-31T06:56:14.030Z,28.80
2022-12-31T06:58:40.850Z,25.50
2022-12-31T07:01:07.390Z,25.50
2022-12-31T07:03:42.111Z,25.20
2022-12-31T07:06:12.460Z,22.20
2022-12-31T07:09:07.272Z,27.20
2022-12-31T07:11:42.856Z,32.75
2022-12-31T07:14:24.547Z,27.00
2022-12-31T07:16:54.041Z,27.00
2022-12-31T07:19:24.997Z,22.40
2022-12-31T07:21:53.274Z,24.00
2022-12-31T07:24:19.841Z,25.00
2022-12-31T07:26:56.980Z,25.40
2022-12-31T07:29:23.646Z,28.00
2022-12-31T07:31:53.053Z,20.60
2022-12-31T07:34:22.854Z,21.60
2022-12-31T07:37:15.696Z,20.60
2022-12-31T07:40:01.099Z,21.60
2022-12-31T07:42:33.011Z,17.40
2022-12-31T07:45:08.331Z,20.20
2022-12-31T07:47:34.955Z,14.50
2022-12-31T07:50:01.588Z,17.00
2022-12-31T07:52:28.151Z,18.00
2022-12-31T07:54:54.595Z,15.40
2022-12-31T07:57:23.628Z,14.67
2022-12-31T08:00:10.349Z,17.20
2022-12-31T08:02:40.059Z,18.50
2022-12-31T08:05:13.914Z,23.00
2022-12-31T08:07:46.263Z,21.80
2022-12-31T08:10:17.485Z,20.50
2022-12-31T08:12:45.576Z,20.75
2022-12-31T08:15:13.400Z,17.40
2022-12-31T08:17:39.950Z,17.25
2022-12-31T08:20:06.812Z,20.00
2022-12-31T08:22:51.860Z,16.50
2022-12-31T08:25:37.176Z,14.75
2022-12-31T08:28:22.387Z,17.80
2022-12-31T08:31:01.059Z,17.50
2022-12-31T08:33:36.756Z,14.40
2022-12-31T08:36:25.912Z,14.00
2022-12-31T08:38:58.232Z,15.60
2022-12-31T08:41:54.254Z,17.50
2022-12-31T08:44:36.435Z,16.80
2022-12-31T08:47:02.891Z,16.00
2022-12-31T08:49:30.661Z,16.40
2022-12-31T08:51:57.818Z,20.00
2022-12-31T08:54:24.498Z,18.00
2022-12-31T08:57:00.000Z,15.00
2022-12-31T08:59:35.696Z,15.60
2022-12-31T09:02:17.499Z,16.00
2022-12-31T09:04:55.230Z,17.00
2022-12-31T09:07:27.995Z,16.40
2022-12-31T09:10:00.315Z,15.20
2022-12-31T09:12:38.085Z,14.40
2022-12-31T09:15:30.187Z,15.00
2022-12-31T09:17:56.770Z,13.60
2022-12-31T09:20:42.377Z,14.40
2022-12-31T09:23:10.447Z,16.00
2022-12-31T09:25:42.271Z,15.00
2022-12-31T09:28:16.194Z,19.40
2022-12-31T09:30:48.763Z,14.00
2022-12-31T09:33:33.644Z,17.40
2022-12-31T09:36:14.760Z,15.00
2022-12-31T09:38:47.458Z,14.40
2022-12-31T09:41:16.861Z,17.40
2022-12-31T09:44:12.724Z,37.50
2022-12-31T09:46:44.993Z,28.60
2022-12-31T09:49:30.132Z,37.80
2022-12-31T09:51:56.582Z,31.40
2022-12-31T09:54:29.183Z,44.00
2022-12-31T09:57:11.915Z,40.25
2022-12-31T09:59:38.347Z,24.75
2022-12-31T10:02:10.942Z,32.00
2022-12-31T10:04:40.836Z,24.60
2022-12-31T10:07:10.258Z,24.40
2022-12-31T10:09:54.732Z,20.60
2022-12-31T10:12:44.048Z,19.00
2022-12-31T10:15:29.358Z,22.00
2022-12-31T10:17:55.834Z,16.25
2022-12-31T10:20:28.093Z,18.60
2022-12-31T10:23:03.751Z,21.80
2022-12-31T10:25:41.037Z,22.00
2022-12-31T10:28:22.693Z,20.60
2022-12-31T10:30:57.364Z,15.75
2022-12-31T10:33:44.087Z,14.60
2022-12-31T10:36:31.726Z,16.40
2022-12-31T10:39:14.408Z,18.40
2022-12-31T10:42:02.760Z,16.00
2022-12-31T10:44:29.215Z,14.00
2022-12-31T10:47:14.558Z,16.50
2022-12-31T10:50:16.687Z,17.00
2022-12-31T10:53:12.438Z,15.00
2022-12-31T10:55:38.914Z,16.00
2022-12-31T10:58:05.307Z,14.33
2022-12-31T11:00:40.311Z,23.00
2022-12-31T11:03:29.233Z,15.80
2022-12-31T11:06:19.341Z,17.33
2022-12-31T11:08:48.856Z,19.75
2022-12-31T11:11:15.261Z,25.00
2022-12-31T11:14:00.151Z,15.67
2022-12-31T11:16:29.675Z,16.00
2022-12-31T11:19:07.483Z,15.50
2022-12-31T11:21:49.124Z,22.40
2022-12-31T11:24:34.378Z,16.00
2022-12-31T11:27:10.243Z,15.60
2022-12-31T11:29:56.649Z,15.00
2022-12-31T11:32:26.237Z,16.20
2022-12-31T11:35:11.545Z,18.75
2022-12-31T11:37:41.063Z,11.00
2022-12-31T11:40:26.126Z,13.50
2022-12-31T11:42:57.659Z,18.00
2022-12-31T11:45:39.076Z,13.40
2022-12-31T11:48:32.897Z,12.60
2022-12-31T11:51:08.611Z,19.00
2022-12-31T11:53:39.834Z,16.80
2022-12-31T11:56:24.877Z,20.80
2022-12-31T11:58:52.701Z,21.50
2022-12-31T12:01:33.780Z,16.00
2022-12-31T12:04:01.192Z,12.00
2022-12-31T12:06:30.016Z,14.50
2022-12-31T12:08:59.329Z,14.40
2022-12-31T12:11:27.344Z,14.40
2022-12-31T12:13:53.818Z,17.50
2022-12-31T12:16:21.995Z,14.00
2022-12-31T12:18:50.163Z,21.00
2022-12-31T12:21:24.303Z,20.80
2022-12-31T12:24:14.025Z,16.75
2022-12-31T12:26:42.023Z,14.00
2022-12-31T12:29:10.573Z,16.20
2022-12-31T12:31:38.262Z,12.00
2022-12-31T12:34:05.447Z,16.67
2022-12-31T12:36:32.240Z,20.00
2022-12-31T12:39:04.595Z,17.25
2022-12-31T12:41:31.198Z,12.00
2022-12-31T12:44:07.944Z,20.00
2022-12-31T12:46:37.057Z,13.00
2022-12-31T12:49:04.177Z,16.00
2022-12-31T12:51:33.421Z,19.60
2022-12-31T12:54:12.259Z,16.50
2022-12-31T12:56:52.174Z,13.50
2022-12-31T12:59:27.796Z,17.00
2022-12-31T13:01:57.516Z,16.00
2022-12-31T13:04:35.408Z,12.00
2022-12-31T13:07:08.349Z,15.50
2022-12-31T13:09:34.756Z,20.75
2022-12-31T13:12:14.122Z,17.00
2022-12-31T13:14:55.993Z,14.00
2022-12-31T13:17:25.168Z,11.25
2022-12-31T13:19:57.989Z,9.40
2022-12-31T13:22:27.644Z,11.60
2022-12-31T13:24:56.885Z,15.00
2022-12-31T13:27:35.433Z,14.00
2022-12-31T13:30:03.395Z,16.80
2022-12-31T13:32:36.501Z,16.00
2022-12-31T13:35:09.062Z,10.75
2022-12-31T13:37:39.706Z,17.20
2022-12-31T13:40:21.673Z,15.00
2022-12-31T13:43:11.124Z,19.40
2022-12-31T13:45:41.582Z,14.50
2022-12-31T13:48:12.402Z,15.75
2022-12-31T13:50:51.948Z,17.20
2022-12-31T13:53:27.053Z,14.00
2022-12-31T13:55:58.060Z,13.00
2022-12-31T13:58:31.807Z,13.00
2022-12-31T14:01:01.208Z,11.75
2022-12-31T14:03:46.279Z,13.20
2022-12-31T14:06:31.661Z,17.00
2022-12-31T14:08:58.163Z,14.40
2022-12-31T14:11:43.044Z,12.00
2022-12-31T14:14:18.974Z,14.00
2022-12-31T14:16:48.161Z,17.80
2022-12-31T14:19:21.358Z,11.00
2022-12-31T14:22:09.118Z,17.60
2022-12-31T14:24:41.840Z,11.40
2022-12-31T14:27:12.862Z,10.75
2022-12-31T14:29:57.233Z,12.00
2022-12-31T14:32:26.717Z,15.20
2022-12-31T14:34:53.218Z,12.00
2022-12-31T14:37:30.823Z,12.00
2022-12-31T14:40:03.475Z,11.20
2022-12-31T14:42:41.979Z,13.60
2022-12-31T14:45:47.152Z,10.00
2022-12-31T14:48:32.149Z,8.00
2022-12-31T14:51:00.756Z,15.00
2022-12-31T14:53:28.347Z,16.00
2022-12-31T14:55:58.087Z,12.50
2022-12-31T14:58:35.110Z,12.40
2022-12-31T15:01:04.500Z,12.20
2022-12-31T15:03:30.985Z,13.25
2022-12-31T15:06:09.422Z,12.00
2022-12-31T15:08:54.423Z,17.00
2022-12-31T15:11:39.466Z,12.50
2022-12-31T15:14:17.651Z,10.80
2022-12-31T15:16:44.359Z,11.80
2022-12-31T15:19:16.688Z,14.00
2022-12-31T15:21:45.971Z,13.00
2022-12-31T15:24:13.813Z,20.80
2022-12-31T15:26:47.048Z,15.50
2022-12-31T15:29:25.344Z,15.50
2022-12-31T15:31:52.451Z,16.00
2022-12-31T15:34:26.891Z,11.75
2022-12-31T15:36:55.170Z,17.75
2022-12-31T15:39:37.268Z,16.40
2022-12-31T15:42:36.663Z,11.50
2022-12-31T15:44:59.326Z,13.20
2022-12-31T15:47:29.582Z,14.25
2022-12-31T15:49:58.258Z,10.40
2022-12-31T15:52:27.675Z,16.80
2022-12-31T15:54:57.847Z,13.75
2022-12-31T15:57:30.843Z,14.40
2022-12-31T16:00:02.446Z,11.20
2022-12-31T16:02:29.088Z,11.00
2022-12-31T16:04:55.906Z,18.25
2022-12-31T16:07:22.682Z,16.80
2022-12-31T16:09:51.344Z,12.00
2022-12-31T16:12:33.558Z,15.00
2022-12-31T16:15:02.120Z,13.00
2022-12-31T16:17:28.613Z,20.60
2022-12-31T16:19:55.721Z,11.75
2022-12-31T16:22:26.780Z,15.60
2022-12-31T16:25:29.151Z,16.00
2022-12-31T16:27:40.904Z,18.00
2022-12-31T16:30:17.911Z,13.60
2022-12-31T16:32:46.956Z,18.60
2022-12-31T16:35:23.783Z,19.20
2022-12-31T16:38:09.303Z,14.20
2022-12-31T16:40:35.764Z,19.00
2022-12-31T16:43:02.223Z,16.50
2022-12-31T16:45:29.218Z,20.00
2022-12-31T16:47:55.956Z,16.50
2022-12-31T16:50:23.041Z,12.50
2022-12-31T16:52:50.702Z,16.25
2022-12-31T16:55:23.420Z,18.40
2022-12-31T16:57:55.811Z,20.80
2022-12-31T17:00:23.981Z,17.00
2022-12-31T17:02:58.439Z,24.25
2022-12-31T17:05:26.323Z,14.00
2022-12-31T17:07:53.156Z,14.80
2022-12-31T17:10:20.071Z,15.25
2022-12-31T17:15:45.053Z,17.00
2022-12-31T17:18:17.191Z,18.20
2022-12-31T17:20:43.688Z,15.80
2022-12-31T17:23:22.827Z,17.60
2022-12-31T17:25:49.368Z,15.40
2022-12-31T17:28:24.181Z,16.00
2022-12-31T17:30:50.733Z,16.75
2022-12-31T17:33:20.245Z,22.40
2022-12-31T17:35:46.854Z,13.00
2022-12-31T17:38:22.113Z,20.25
2022-12-31T17:41:04.301Z,16.40
2022-12-31T17:43:35.255Z,15.50
2022-12-31T17:46:03.159Z,18.75
2022-12-31T17:48:29.698Z,14.00
2022-12-31T17:51:00.310Z,19.25
2022-12-31T17:53:27.097Z,18.00
2022-12-31T17:55:56.024Z,17.80
2022-12-31T17:58:26.135Z,15.80
2022-12-31T18:00:56.117Z,18.80
2022-12-31T18:03:22.756Z,16.20
2022-12-31T18:05:49.353Z,14.50
2022-12-31T18:08:15.802Z,12.20
2022-12-31T18:10:42.990Z,13.60
2022-12-31T18:13:17.957Z,15.00
2022-12-31T18:15:44.864Z,17.00
2022-12-31T18:18:25.357Z,19.75
2022-12-31T18:20:57.684Z,12.00
2022-12-31T18:23:26.663Z,13.80
2022-12-31T18:25:53.614Z,13.00
2022-12-31T18:28:20.368Z,12.20
2022-12-31T18:30:47.393Z,13.00
2022-12-31T18:33:14.709Z,13.33
2022-12-31T18:36:17.056Z,9.00
2022-12-31T18:38:30.853Z,15.25
2022-12-31T18:40:58.308Z,17.00
2022-12-31T18:43:25.167Z,11.60
2022-12-31T18:45:52.316Z,17.00
2022-12-31T18:48:19.268Z,15.60
2022-12-31T18:50:46.271Z,11.50
2022-12-31T18:53:19.745Z,19.00
2022-12-31T18:55:50.629Z,16.00
2022-12-31T18:58:17.463Z,17.40
2022-12-31T19:00:44.638Z,19.00
2022-12-31T19:03:15.759Z,17.40
2022-12-31T19:05:42.677Z,20.00
2022-12-31T19:08:09.124Z,18.00
2022-12-31T19:10:35.598Z,18.00
2022-12-31T19:13:02.084Z,14.50
2022-12-31T19:15:30.322Z,15.00
2022-12-31T19:17:57.317Z,17.00
2022-12-31T19:20:23.874Z,10.75
2022-12-31T19:22:50.380Z,12.00
2022-12-31T19:25:18.251Z,14.00
2022-12-31T19:27:44.899Z,9.25
2022-12-31T19:30:15.805Z,10.75
2022-12-31T19:32:42.304Z,15.00
2022-12-31T19:35:11.044Z,11.60
2022-12-31T19:37:37.451Z,12.00
2022-12-31T19:40:04.142Z,13.00
2022-12-31T19:42:30.608Z,12.50
2022-12-31T19:44:57.030Z,15.40
2022-12-31T19:47:23.484Z,15.40
2022-12-31T19:49:49.942Z,16.00
2022-12-31T19:52:16.438Z,12.60
2022-12-31T19:54:42.939Z,11.60
2022-12-31T19:57:09.413Z,12.00
2022-12-31T19:59:35.833Z,15.50
2022-12-31T20:02:03.073Z,19.00
2022-12-31T20:04:29.692Z,14.50
2022-12-31T20:06:56.122Z,11.50
2022-12-31T20:09:22.605Z,18.25
2022-12-31T20:11:49.076Z,30.80
2022-12-31T20:14:15.618Z,13.00
2022-12-31T20:16:42.285Z,13.60
2022-12-31T20:19:09.628Z,12.40
2022-12-31T20:21:36.151Z,12.00
2022-12-31T20:24:02.644Z,12.00
2022-12-31T20:26:29.107Z,13.00
2022-12-31T20:28:55.658Z,15.00
2022-12-31T20:31:25.495Z,19.40
2022-12-31T20:33:54.007Z,14.20
2022-12-31T20:36:20.756Z,14.75
2022-12-31T20:38:47.213Z,20.00
2022-12-31T20:41:18.237Z,18.75
2022-12-31T20:43:45.429Z,10.50
2022-12-31T20:46:15.611Z,11.50
2022-12-31T20:48:43.292Z,16.75
2022-12-31T20:51:09.834Z,11.00
2022-12-31T20:53:36.377Z,11.00
2022-12-31T20:56:06.698Z,13.80
2022-12-31T20:58:33.174Z,11.00
2022-12-31T21:00:59.783Z,10.75
2022-12-31T21:04:03.144Z,14.00
2022-12-31T21:06:13.398Z,11.75
2022-12-31T21:08:40.093Z,15.00
2022-12-31T21:11:27.074Z,12.67
2022-12-31T21:13:54.279Z,11.00
2022-12-31T21:16:20.762Z,11.00
2022-12-31T21:18:47.298Z,15.40
2022-12-31T21:21:14.018Z,11.00
2022-12-31T21:23:41.702Z,11.75
2022-12-31T21:26:08.545Z,12.33
2022-12-31T21:28:35.076Z,14.25
2022-12-31T21:31:02.638Z,8.60
2022-12-31T21:33:29.184Z,9.60
2022-12-31T21:35:58.634Z,11.33
2022-12-31T21:38:29.214Z,7.75
2022-12-31T21:40:55.768Z,11.40
2022-12-31T21:43:22.230Z,7.50
2022-12-31T21:45:59.001Z,16.00
2022-12-31T21:48:25.532Z,11.00
2022-12-31T21:50:53.307Z,12.50
2022-12-31T21:53:24.819Z,11.60
2022-12-31T21:56:09.639Z,12.75
2022-12-31T21:58:40.230Z,16.25
2022-12-31T22:01:25.186Z,15.80
2022-12-31T22:03:52.294Z,13.20
2022-12-31T22:06:22.983Z,34.00
2022-12-31T22:08:54.623Z,11.00
2022-12-31T22:11:22.415Z,14.80
2022-12-31T22:13:49.352Z,12.00
2022-12-31T22:16:17.254Z,13.00
2022-12-31T22:18:44.288Z,13.00
2022-12-31T22:21:18.908Z,17.00
2022-12-31T22:23:47.633Z,31.75
2022-12-31T22:26:15.197Z,30.40
2022-12-31T22:28:42.428Z,19.40
2022-12-31T22:31:16.191Z,16.25
2022-12-31T22:33:43.262Z,21.20
2022-12-31T22:36:14.490Z,15.40
2022-12-31T22:38:41.193Z,15.40
2022-12-31T22:41:12.267Z,12.60
2022-12-31T22:43:41.155Z,18.80
2022-12-31T22:46:09.159Z,24.60
2022-12-31T22:48:35.892Z,18.50
2022-12-31T22:51:02.420Z,15.00
2022-12-31T22:53:28.908Z,13.80
2022-12-31T22:55:55.388Z,21.60
2022-12-31T22:58:22.763Z,14.00
2022-12-31T23:00:49.345Z,11.00
2022-12-31T23:03:16.396Z,29.75
2022-12-31T23:05:43.283Z,22.40
2022-12-31T23:08:18.758Z,19.00
2022-12-31T23:11:05.801Z,22.80
2022-12-31T23:13:56.114Z,17.33
2022-12-31T23:16:42.591Z,16.60
2022-12-31T23:19:27.894Z,18.60
2022-12-31T23:22:12.814Z,16.60
2022-12-31T23:24:39.734Z,14.75
2022-12-31T23:27:06.643Z,18.00
2022-12-31T23:29:33.260Z,22.60
2022-12-31T23:32:00.034Z,21.00
2022-12-31T23:34:26.513Z,29.00
2022-12-31T23:36:53.024Z,16.40
2022-12-31T23:39:19.585Z,18.20
2022-12-31T23:41:46.056Z,17.60
2022-12-31T23:44:12.568Z,22.00
2022-12-31T23:46:39.404Z,12.50
2022-12-31T23:49:06.003Z,14.25
2022-12-31T23:51:33.003Z,10.00
2022-12-31T23:53:59.461Z,13.25
2022-12-31T23:56:25.895Z,18.25
2022-12-31T23:58:59.201Z,17.00
